TimeMDT,TemperatureF,Dew PointF,Humidity,Sea Level PressureIn,VisibilityMPH,Wind Direction,Wind SpeedMPH,Gust SpeedMPH,PrecipitationIn,Events,Conditions,WindDirDegrees,DateUTC
12:53 AM,53.1,42.1,66,30.02,10.0,ESE,3.5,-,N/A,,Clear,110,2013-06-17 06:53:00
1:53 AM,50.0,42.1,74,30.03,10.0,SSE,4.6,-,N/A,,Clear,160,2013-06-17 07:53:00
2:53 AM,48.9,41.0,74,30.02,10.0,SW,6.9,-,N/A,,Clear,220,2013-06-17 08:53:00
3:53 AM,50.0,41.0,71,30.01,10.0,South,5.8,-,N/A,,Clear,170,2013-06-17 09:53:00
4:53 AM,45.0,41.0,86,30.03,10.0,SSW,4.6,-,N/A,,Clear,210,2013-06-17 10:53:00
5:53 AM,45.0,39.0,80,30.03,10.0,Calm,Calm,-,N/A,,Clear,0,2013-06-17 11:53:00
6:53 AM,46.9,39.9,77,30.05,10.0,SSW,10.4,-,N/A,,Clear,200,2013-06-17 12:53:00
7:53 AM,53.1,42.1,66,30.03,10.0,SSW,8.1,-,N/A,,Clear,200,2013-06-17 13:53:00
8:53 AM,55.0,44.1,67,30.05,10.0,Calm,Calm,-,N/A,,Clear,0,2013-06-17 14:53:00
9:53 AM,60.1,44.1,55,30.03,10.0,Calm,Calm,-,N/A,,Clear,0,2013-06-17 15:53:00
10:53 AM,64.0,46.0,52,30.01,10.0,NNW,4.6,-,N/A,,Clear,330,2013-06-17 16:53:00
11:53 AM,68.0,46.0,45,29.99,10.0,Variable,3.5,-,N/A,,Clear,0,2013-06-17 17:53:00
12:53 PM,72.0,48.0,43,29.96,10.0,Variable,4.6,-,N/A,,Clear,0,2013-06-17 18:53:00
1:53 PM,77.0,46.0,33,29.93,10.0,Variable,5.8,-,N/A,,Clear,0,2013-06-17 19:53:00
2:53 PM,80.1,39.9,24,29.90,10.0,Calm,Calm,-,N/A,,Clear,0,2013-06-17 20:53:00
3:53 PM,81.0,33.1,18,29.87,10.0,SSE,3.5,-,N/A,,Clear,150,2013-06-17 21:53:00
4:53 PM,82.0,35.1,18,29.86,10.0,Calm,Calm,-,N/A,,Clear,0,2013-06-17 22:53:00
5:53 PM,82.0,35.1,18,29.83,10.0,ESE,5.8,-,N/A,,Clear,110,2013-06-17 23:53:00
6:53 PM,81.0,37.0,21,29.81,10.0,North,3.5,-,N/A,,Clear,360,2013-06-18 00:53:00
7:53 PM,73.0,48.0,41,29.80,10.0,NE,8.1,-,N/A,,Clear,40,2013-06-18 01:53:00
8:53 PM,70.0,46.9,44,29.79,10.0,North,6.9,-,N/A,,Clear,350,2013-06-18 02:53:00
9:53 PM,64.9,42.1,43,29.81,10.0,NNE,5.8,-,N/A,,Clear,30,2013-06-18 03:53:00
10:53 PM,57.9,45.0,62,29.85,10.0,WNW,3.5,-,N/A,,Clear,290,2013-06-18 04:53:00
11:53 PM,61.0,43.0,52,29.83,10.0,East,9.2,-,N/A,,Clear,80,2013-06-18 05:53:00